Falls Church, Virginia
Current Conditions -  °F | °C
As of 9:52 AM on Thursday 30 Oct 2014 (Local Time) from KDCA Reporting Station
Scattered Clouds Scattered Clouds  
Wind Chill: 54°   Ceiling: Unl
Heat Index: 54°   Visibility: 10mi
Dew Point: 38°   Wind: 14mph
Humidity: 55%   Direction: 320°NW
Pressure: 30.08"   Gusts: NA
Location:  38.89°N, 77.17°W
Report Text: KDCA 301352Z 32012KT 10SM SCT070 SCT120 12/03 A3008 RMK AO2 SLP187 T01220033
Loading
Personal Weather Stations






























Interactive Weather Map
Tropical Storm Tracking
New forecast layout! Learn more

10-Day Weather Forecast

Advertisements
Track Severe Weather on mobile